sensor_id;sensor_type;location;lat;lon;timestamp;temperature;humidity
21207;DHT22;10761;48.532;8.026;2023-05-02T00:01:39;10.50;48.50
21207;DHT22;10761;48.532;8.026;2023-05-02T00:04:06;10.50;93.70
21207;DHT22;10761;48.532;8.026;2023-05-02T00:06:32;10.50;89.50
21207;DHT22;10761;48.532;8.026;2023-05-02T00:08:57;10.40;50.90
21207;DHT22;10761;48.532;8.026;2023-05-02T00:11:23;10.40;62.30
21207;DHT22;10761;48.532;8.026;2023-05-02T00:13:49;10.30;53.40
21207;DHT22;10761;48.532;8.026;2023-05-02T00:16:15;10.30;99.90
21207;DHT22;10761;48.532;8.026;2023-05-02T00:18:40;10.30;99.90
21207;DHT22;10761;48.532;8.026;2023-05-02T00:21:06;10.30;99.90
21207;DHT22;10761;48.532;8.026;2023-05-02T00:23:33;10.40;99.90
21207;DHT22;10761;48.532;8.026;2023-05-02T00:25:59;10.40;99.90
21207;DHT22;10761;48.532;8.026;2023-05-02T00:28:24;10.40;99.90
21207;DHT22;10761;48.532;8.026;2023-05-02T00:30:51;10.30;99.90
21207;DHT22;10761;48.532;8.026;2023-05-02T00:33:17;10.30;99.90
21207;DHT22;10761;48.532;8.026;2023-05-02T00:35:43;10.30;99.90
21207;DHT22;10761;48.532;8.026;2023-05-02T00:38:09;10.30;99.90
21207;DHT22;10761;48.532;8.026;2023-05-02T00:40:50;10.40;99.90
21207;DHT22;10761;48.532;8.026;2023-05-02T00:43:17;10.40;99.90
21207;DHT22;10761;48.532;8.026;2023-05-02T00:45:43;10.30;99.90
21207;DHT22;10761;48.532;8.026;2023-05-02T00:48:10;10.30;99.90
21207;DHT22;10761;48.532;8.026;2023-05-02T00:50:38;10.30;99.90
21207;DHT22;10761;48.532;8.026;2023-05-02T00:53:09;10.30;99.90
21207;DHT22;10761;48.532;8.026;2023-05-02T00:55:35;10.30;99.90
21207;DHT22;10761;48.532;8.026;2023-05-02T00:58:06;10.30;99.90
21207;DHT22;10761;48.532;8.026;2023-05-02T01:00:45;10.30;99.90
21207;DHT22;10761;48.532;8.026;2023-05-02T01:09:09;10.50;99.90
21207;DHT22;10761;48.532;8.026;2023-05-02T01:14:14;10.50;99.90
21207;DHT22;10761;48.532;8.026;2023-05-02T01:16:42;10.50;99.90
21207;DHT22;10761;48.532;8.026;2023-05-02T01:19:24;10.50;99.90
21207;DHT22;10761;48.532;8.026;2023-05-02T01:21:51;10.50;99.90
21207;DHT22;10761;48.532;8.026;2023-05-02T01:24:25;10.50;99.90
21207;DHT22;10761;48.532;8.026;2023-05-02T01:29:21;10.60;99.90
21207;DHT22;10761;48.532;8.026;2023-05-02T01:31:49;10.60;99.90
21207;DHT22;10761;48.532;8.026;2023-05-02T01:34:17;10.60;99.90
21207;DHT22;10761;48.532;8.026;2023-05-02T01:36:46;10.60;99.90
21207;DHT22;10761;48.532;8.026;2023-05-02T01:39:20;10.60;99.90
21207;DHT22;10761;48.532;8.026;2023-05-02T01:41:52;10.60;99.90
21207;DHT22;10761;48.532;8.026;2023-05-02T01:44:21;10.60;99.90
21207;DHT22;10761;48.532;8.026;2023-05-02T01:46:48;10.70;99.90
21207;DHT22;10761;48.532;8.026;2023-05-02T01:49:15;10.70;99.90
21207;DHT22;10761;48.532;8.026;2023-05-02T01:51:47;10.70;99.90
21207;DHT22;10761;48.532;8.026;2023-05-02T01:54:14;10.70;99.90
21207;DHT22;10761;48.532;8.026;2023-05-02T01:56:41;10.70;96.60
21207;DHT22;10761;48.532;8.026;2023-05-02T01:59:10;10.70;99.90
21207;DHT22;10761;48.532;8.026;2023-05-02T02:01:37;10.70;99.90
21207;DHT22;10761;48.532;8.026;2023-05-02T02:04:04;10.60;99.90
21207;DHT22;10761;48.532;8.026;2023-05-02T02:06:31;10.60;99.90
21207;DHT22;10761;48.532;8.026;2023-05-02T02:08:57;10.70;99.90
21207;DHT22;10761;48.532;8.026;2023-05-02T02:11:46;10.60;99.90
21207;DHT22;10761;48.532;8.026;2023-05-02T02:14:19;10.60;99.90
21207;DHT22;10761;48.532;8.026;2023-05-02T02:16:45;10.50;99.90
21207;DHT22;10761;48.532;8.026;2023-05-02T02:19:13;10.50;99.90
21207;DHT22;10761;48.532;8.026;2023-05-02T02:21:42;10.50;99.90
21207;DHT22;10761;48.532;8.026;2023-05-02T02:24:08;10.50;99.90
21207;DHT22;10761;48.532;8.026;2023-05-02T02:26:36;10.50;99.90
21207;DHT22;10761;48.532;8.026;2023-05-02T02:29:03;10.50;99.90
21207;DHT22;10761;48.532;8.026;2023-05-02T02:31:33;10.50;99.90
21207;DHT22;10761;48.532;8.026;2023-05-02T02:34:00;10.50;99.90
21207;DHT22;10761;48.532;8.026;2023-05-02T02:40:03;10.40;99.90
21207;DHT22;10761;48.532;8.026;2023-05-02T02:42:29;10.40;99.90
21207;DHT22;10761;48.532;8.026;2023-05-02T02:45:03;10.40;99.90
21207;DHT22;10761;48.532;8.026;2023-05-02T02:51:13;10.40;99.90
21207;DHT22;10761;48.532;8.026;2023-05-02T02:53:59;10.40;99.90
21207;DHT22;10761;48.532;8.026;2023-05-02T02:56:36;10.40;99.90
21207;DHT22;10761;48.532;8.026;2023-05-02T02:59:25;10.40;99.90
21207;DHT22;10761;48.532;8.026;2023-05-02T03:02:05;10.40;99.90
21207;DHT22;10761;48.532;8.026;2023-05-02T03:04:35;10.40;99.90
21207;DHT22;10761;48.532;8.026;2023-05-02T03:07:02;10.30;99.90
21207;DHT22;10761;48.532;8.026;2023-05-02T03:09:39;10.30;99.90
21207;DHT22;10761;48.532;8.026;2023-05-02T03:12:05;10.30;99.90
21207;DHT22;10761;48.532;8.026;2023-05-02T03:14:30;10.30;99.90
21207;DHT22;10761;48.532;8.026;2023-05-02T03:16:56;10.20;99.90
21207;DHT22;10761;48.532;8.026;2023-05-02T03:19:22;10.20;99.90
21207;DHT22;10761;48.532;8.026;2023-05-02T03:21:47;10.30;99.90
21207;DHT22;10761;48.532;8.026;2023-05-02T03:24:13;10.20;99.90
21207;DHT22;10761;48.532;8.026;2023-05-02T03:26:39;10.30;99.90
21207;DHT22;10761;48.532;8.026;2023-05-02T03:29:05;10.20;99.90
21207;DHT22;10761;48.532;8.026;2023-05-02T03:31:31;10.30;99.90
21207;DHT22;10761;48.532;8.026;2023-05-02T03:33:56;10.40;99.90
21207;DHT22;10761;48.532;8.026;2023-05-02T03:36:22;10.30;99.90
21207;DHT22;10761;48.532;8.026;2023-05-02T03:38:48;10.30;99.90
21207;DHT22;10761;48.532;8.026;2023-05-02T03:41:13;10.30;99.90
21207;DHT22;10761;48.532;8.026;2023-05-02T03:43:39;10.20;99.90
21207;DHT22;10761;48.532;8.026;2023-05-02T03:46:06;10.20;99.90
21207;DHT22;10761;48.532;8.026;2023-05-02T03:48:32;10.20;99.90
21207;DHT22;10761;48.532;8.026;2023-05-02T03:50:58;10.20;99.90
21207;DHT22;10761;48.532;8.026;2023-05-02T03:53:25;10.20;99.90
21207;DHT22;10761;48.532;8.026;2023-05-02T03:55:50;10.10;99.90
21207;DHT22;10761;48.532;8.026;2023-05-02T03:58:16;10.00;99.90
21207;DHT22;10761;48.532;8.026;2023-05-02T04:00:41;10.00;99.90
21207;DHT22;10761;48.532;8.026;2023-05-02T04:03:07;9.90;99.90
21207;DHT22;10761;48.532;8.026;2023-05-02T04:05:33;9.90;99.90
21207;DHT22;10761;48.532;8.026;2023-05-02T04:07:59;9.80;99.90
21207;DHT22;10761;48.532;8.026;2023-05-02T04:10:25;9.80;99.90
21207;DHT22;10761;48.532;8.026;2023-05-02T04:12:51;9.70;99.90
21207;DHT22;10761;48.532;8.026;2023-05-02T04:15:16;9.70;99.90
21207;DHT22;10761;48.532;8.026;2023-05-02T04:17:42;9.60;99.90
21207;DHT22;10761;48.532;8.026;2023-05-02T04:20:08;9.60;99.90
21207;DHT22;10761;48.532;8.026;2023-05-02T04:22:34;9.50;99.90
21207;DHT22;10761;48.532;8.026;2023-05-02T04:24:59;9.40;99.90
21207;DHT22;10761;48.532;8.026;2023-05-02T04:27:25;9.40;99.90
21207;DHT22;10761;48.532;8.026;2023-05-02T04:29:51;9.30;99.90
21207;DHT22;10761;48.532;8.026;2023-05-02T04:32:18;9.30;99.90
21207;DHT22;10761;48.532;8.026;2023-05-02T04:34:43;9.20;99.90
21207;DHT22;10761;48.532;8.026;2023-05-02T04:37:09;9.30;99.90
21207;DHT22;10761;48.532;8.026;2023-05-02T04:39:34;9.30;99.90
21207;DHT22;10761;48.532;8.026;2023-05-02T04:42:00;9.20;99.90
21207;DHT22;10761;48.532;8.026;2023-05-02T04:44:26;9.20;99.90
21207;DHT22;10761;48.532;8.026;2023-05-02T04:46:52;9.20;99.90
21207;DHT22;10761;48.532;8.026;2023-05-02T04:49:18;9.20;99.90
21207;DHT22;10761;48.532;8.026;2023-05-02T04:51:43;9.20;99.90
21207;DHT22;10761;48.532;8.026;2023-05-02T04:54:09;9.10;99.90
21207;DHT22;10761;48.532;8.026;2023-05-02T04:56:35;9.00;99.90
21207;DHT22;10761;48.532;8.026;2023-05-02T04:59:01;8.90;99.90
21207;DHT22;10761;48.532;8.026;2023-05-02T05:01:27;8.90;99.90
21207;DHT22;10761;48.532;8.026;2023-05-02T05:03:53;9.00;99.90
21207;DHT22;10761;48.532;8.026;2023-05-02T05:06:19;9.00;99.90
21207;DHT22;10761;48.532;8.026;2023-05-02T05:08:45;9.10;99.90
21207;DHT22;10761;48.532;8.026;2023-05-02T05:11:11;9.20;99.90
21207;DHT22;10761;48.532;8.026;2023-05-02T05:13:36;9.20;99.90
21207;DHT22;10761;48.532;8.026;2023-05-02T05:16:02;9.20;99.90
21207;DHT22;10761;48.532;8.026;2023-05-02T05:18:29;9.30;99.90
21207;DHT22;10761;48.532;8.026;2023-05-02T05:20:55;9.40;99.90
21207;DHT22;10761;48.532;8.026;2023-05-02T05:23:21;9.50;99.90
21207;DHT22;10761;48.532;8.026;2023-05-02T05:25:46;9.60;99.90
21207;DHT22;10761;48.532;8.026;2023-05-02T05:28:12;9.70;99.90
21207;DHT22;10761;48.532;8.026;2023-05-02T05:30:38;9.90;99.90
21207;DHT22;10761;48.532;8.026;2023-05-02T05:33:03;10.00;99.90
21207;DHT22;10761;48.532;8.026;2023-05-02T05:35:29;10.10;99.90
21207;DHT22;10761;48.532;8.026;2023-05-02T05:37:56;10.30;99.90
21207;DHT22;10761;48.532;8.026;2023-05-02T05:40:22;10.50;99.90
21207;DHT22;10761;48.532;8.026;2023-05-02T05:42:47;10.60;99.90
21207;DHT22;10761;48.532;8.026;2023-05-02T05:45:13;10.80;99.90
21207;DHT22;10761;48.532;8.026;2023-05-02T05:47:40;11.00;99.90
21207;DHT22;10761;48.532;8.026;2023-05-02T05:50:06;11.20;94.20
21207;DHT22;10761;48.532;8.026;2023-05-02T05:52:32;11.40;1.00
21207;DHT22;10761;48.532;8.026;2023-05-02T05:54:57;11.60;1.00
21207;DHT22;10761;48.532;8.026;2023-05-02T05:57:24;11.70;1.00
21207;DHT22;10761;48.532;8.026;2023-05-02T05:59:49;11.90;1.00
21207;DHT22;10761;48.532;8.026;2023-05-02T06:02:15;12.00;1.00
21207;DHT22;10761;48.532;8.026;2023-05-02T06:04:41;12.20;1.00
21207;DHT22;10761;48.532;8.026;2023-05-02T06:07:06;12.50;1.00
21207;DHT22;10761;48.532;8.026;2023-05-02T06:09:32;12.60;1.00
21207;DHT22;10761;48.532;8.026;2023-05-02T06:11:57;12.70;1.00
21207;DHT22;10761;48.532;8.026;2023-05-02T06:14:23;13.00;1.00
21207;DHT22;10761;48.532;8.026;2023-05-02T06:16:49;13.10;1.00
21207;DHT22;10761;48.532;8.026;2023-05-02T06:19:14;13.20;1.00
21207;DHT22;10761;48.532;8.026;2023-05-02T06:21:40;13.50;99.90
21207;DHT22;10761;48.532;8.026;2023-05-02T06:24:06;13.70;99.90
21207;DHT22;10761;48.532;8.026;2023-05-02T06:26:31;14.00;1.00
21207;DHT22;10761;48.532;8.026;2023-05-02T06:28:57;14.40;1.00
21207;DHT22;10761;48.532;8.026;2023-05-02T06:31:22;14.40;99.90
21207;DHT22;10761;48.532;8.026;2023-05-02T06:33:48;14.40;99.90
21207;DHT22;10761;48.532;8.026;2023-05-02T06:36:14;14.60;1.00
21207;DHT22;10761;48.532;8.026;2023-05-02T06:38:39;14.60;1.00
21207;DHT22;10761;48.532;8.026;2023-05-02T06:41:05;14.90;1.00
21207;DHT22;10761;48.532;8.026;2023-05-02T06:43:31;15.10;1.00
21207;DHT22;10761;48.532;8.026;2023-05-02T06:45:57;15.30;99.90
21207;DHT22;10761;48.532;8.026;2023-05-02T06:48:23;15.10;99.90
21207;DHT22;10761;48.532;8.026;2023-05-02T06:50:50;15.00;99.90
21207;DHT22;10761;48.532;8.026;2023-05-02T06:53:16;14.80;99.90
21207;DHT22;10761;48.532;8.026;2023-05-02T06:55:43;14.70;1.00
21207;DHT22;10761;48.532;8.026;2023-05-02T06:58:08;14.80;1.00
21207;DHT22;10761;48.532;8.026;2023-05-02T07:00:34;15.10;99.90
21207;DHT22;10761;48.532;8.026;2023-05-02T07:03:00;15.50;1.00
21207;DHT22;10761;48.532;8.026;2023-05-02T07:05:25;15.40;99.90
21207;DHT22;10761;48.532;8.026;2023-05-02T07:07:51;15.60;1.00
21207;DHT22;10761;48.532;8.026;2023-05-02T07:10:16;15.70;13.00
21207;DHT22;10761;48.532;8.026;2023-05-02T07:12:42;15.60;1.00
21207;DHT22;10761;48.532;8.026;2023-05-02T07:15:08;15.40;99.90
21207;DHT22;10761;48.532;8.026;2023-05-02T07:17:34;15.00;99.90
21207;DHT22;10761;48.532;8.026;2023-05-02T07:20:00;14.50;7.20
21207;DHT22;10761;48.532;8.026;2023-05-02T07:22:25;14.20;99.90
21207;DHT22;10761;48.532;8.026;2023-05-02T07:24:59;14.30;1.00
21207;DHT22;10761;48.532;8.026;2023-05-02T07:27:25;14.40;99.90
21207;DHT22;10761;48.532;8.026;2023-05-02T07:29:50;14.50;1.00
21207;DHT22;10761;48.532;8.026;2023-05-02T07:32:16;14.20;1.00
21207;DHT22;10761;48.532;8.026;2023-05-02T07:34:42;13.80;1.00
21207;DHT22;10761;48.532;8.026;2023-05-02T07:37:08;13.50;1.00
21207;DHT22;10761;48.532;8.026;2023-05-02T07:39:34;13.60;99.90
21207;DHT22;10761;48.532;8.026;2023-05-02T07:41:59;13.80;1.00
21207;DHT22;10761;48.532;8.026;2023-05-02T07:44:25;13.80;99.90
21207;DHT22;10761;48.532;8.026;2023-05-02T07:46:51;13.90;1.00
21207;DHT22;10761;48.532;8.026;2023-05-02T07:49:18;14.00;1.00
21207;DHT22;10761;48.532;8.026;2023-05-02T07:51:43;13.90;1.00
21207;DHT22;10761;48.532;8.026;2023-05-02T07:54:17;13.80;1.00
21207;DHT22;10761;48.532;8.026;2023-05-02T07:56:43;13.80;1.00
21207;DHT22;10761;48.532;8.026;2023-05-02T07:59:09;13.80;1.00
21207;DHT22;10761;48.532;8.026;2023-05-02T08:01:36;13.70;55.90
21207;DHT22;10761;48.532;8.026;2023-05-02T08:04:01;14.00;99.90
21207;DHT22;10761;48.532;8.026;2023-05-02T08:06:27;14.20;1.00
21207;DHT22;10761;48.532;8.026;2023-05-02T08:08:57;14.60;1.00
21207;DHT22;10761;48.532;8.026;2023-05-02T08:11:22;14.80;1.00
21207;DHT22;10761;48.532;8.026;2023-05-02T08:13:50;15.10;1.00
21207;DHT22;10761;48.532;8.026;2023-05-02T08:16:16;15.90;33.80
21207;DHT22;10761;48.532;8.026;2023-05-02T08:18:41;16.60;1.00
21207;DHT22;10761;48.532;8.026;2023-05-02T08:21:07;17.20;1.00
21207;DHT22;10761;48.532;8.026;2023-05-02T08:23:33;17.90;99.90
21207;DHT22;10761;48.532;8.026;2023-05-02T08:25:58;18.10;99.90
21207;DHT22;10761;48.532;8.026;2023-05-02T08:28:24;17.30;99.90
21207;DHT22;10761;48.532;8.026;2023-05-02T08:30:50;16.60;99.90
21207;DHT22;10761;48.532;8.026;2023-05-02T08:33:15;16.60;99.90
21207;DHT22;10761;48.532;8.026;2023-05-02T08:35:41;17.30;99.90
21207;DHT22;10761;48.532;8.026;2023-05-02T08:38:07;17.90;99.90
21207;DHT22;10761;48.532;8.026;2023-05-02T08:40:35;18.20;99.90
21207;DHT22;10761;48.532;8.026;2023-05-02T08:43:03;18.40;99.90
21207;DHT22;10761;48.532;8.026;2023-05-02T08:45:39;18.40;1.00
21207;DHT22;10761;48.532;8.026;2023-05-02T08:48:06;17.80;1.00
21207;DHT22;10761;48.532;8.026;2023-05-02T08:50:44;17.70;99.90
21207;DHT22;10761;48.532;8.026;2023-05-02T08:53:12;18.00;99.90
21207;DHT22;10761;48.532;8.026;2023-05-02T08:55:40;18.70;99.90
21207;DHT22;10761;48.532;8.026;2023-05-02T08:58:07;19.00;15.10
21207;DHT22;10761;48.532;8.026;2023-05-02T09:00:37;19.70;1.00
21207;DHT22;10761;48.532;8.026;2023-05-02T09:03:21;19.40;1.00
21207;DHT22;10761;48.532;8.026;2023-05-02T09:05:52;19.50;1.00
21207;DHT22;10761;48.532;8.026;2023-05-02T09:08:23;19.20;1.00
21207;DHT22;10761;48.532;8.026;2023-05-02T09:10:49;18.80;1.00
21207;DHT22;10761;48.532;8.026;2023-05-02T09:13:48;18.40;1.00
21207;DHT22;10761;48.532;8.026;2023-05-02T09:16:24;17.50;1.00
21207;DHT22;10761;48.532;8.026;2023-05-02T09:18:58;17.60;1.00
21207;DHT22;10761;48.532;8.026;2023-05-02T09:21:34;17.60;1.00
21207;DHT22;10761;48.532;8.026;2023-05-02T09:24:01;17.30;99.90
21207;DHT22;10761;48.532;8.026;2023-05-02T09:26:39;17.40;99.90
21207;DHT22;10761;48.532;8.026;2023-05-02T09:29:04;17.30;99.90
21207;DHT22;10761;48.532;8.026;2023-05-02T09:31:32;17.20;1.00
21207;DHT22;10761;48.532;8.026;2023-05-02T09:34:15;17.30;99.90
21207;DHT22;10761;48.532;8.026;2023-05-02T09:36:46;17.90;99.90
21207;DHT22;10761;48.532;8.026;2023-05-02T09:39:14;18.20;6.30
21207;DHT22;10761;48.532;8.026;2023-05-02T09:41:44;19.00;1.00
21207;DHT22;10761;48.532;8.026;2023-05-02T09:44:12;19.50;1.00
21207;DHT22;10761;48.532;8.026;2023-05-02T09:46:42;19.90;1.00
21207;DHT22;10761;48.532;8.026;2023-05-02T09:49:08;20.00;1.00
21207;DHT22;10761;48.532;8.026;2023-05-02T09:51:37;19.90;1.00
21207;DHT22;10761;48.532;8.026;2023-05-02T09:54:03;19.90;1.00
21207;DHT22;10761;48.532;8.026;2023-05-02T09:56:28;20.30;1.00
21207;DHT22;10761;48.532;8.026;2023-05-02T09:59:13;20.10;1.00
21207;DHT22;10761;48.532;8.026;2023-05-02T10:01:40;20.30;1.00
21207;DHT22;10761;48.532;8.026;2023-05-02T10:04:11;20.20;1.00
21207;DHT22;10761;48.532;8.026;2023-05-02T10:06:44;20.50;1.00
21207;DHT22;10761;48.532;8.026;2023-05-02T10:09:10;20.70;1.00
21207;DHT22;10761;48.532;8.026;2023-05-02T10:11:43;20.90;1.00
21207;DHT22;10761;48.532;8.026;2023-05-02T10:14:10;20.70;1.00
21207;DHT22;10761;48.532;8.026;2023-05-02T10:17:28;20.20;1.00
21207;DHT22;10761;48.532;8.026;2023-05-02T10:19:35;19.60;1.00
21207;DHT22;10761;48.532;8.026;2023-05-02T10:22:02;19.40;1.00
21207;DHT22;10761;48.532;8.026;2023-05-02T10:24:31;19.40;1.00
21207;DHT22;10761;48.532;8.026;2023-05-02T10:26:57;19.70;1.00
21207;DHT22;10761;48.532;8.026;2023-05-02T10:29:26;20.30;1.00
21207;DHT22;10761;48.532;8.026;2023-05-02T10:31:53;20.70;1.00
21207;DHT22;10761;48.532;8.026;2023-05-02T10:34:20;21.10;1.00
21207;DHT22;10761;48.532;8.026;2023-05-02T10:36:46;21.30;1.00
21207;DHT22;10761;48.532;8.026;2023-05-02T10:39:12;21.30;1.00
21207;DHT22;10761;48.532;8.026;2023-05-02T10:41:39;21.10;1.00
21207;DHT22;10761;48.532;8.026;2023-05-02T10:44:06;21.20;1.00
21207;DHT22;10761;48.532;8.026;2023-05-02T10:46:38;20.70;1.00
21207;DHT22;10761;48.532;8.026;2023-05-02T10:49:08;20.80;1.00
21207;DHT22;10761;48.532;8.026;2023-05-02T10:51:35;20.90;1.00
21207;DHT22;10761;48.532;8.026;2023-05-02T10:54:23;20.90;1.00
21207;DHT22;10761;48.532;8.026;2023-05-02T10:59:36;20.90;1.00
21207;DHT22;10761;48.532;8.026;2023-05-02T11:02:48;20.80;1.00
21207;DHT22;10761;48.532;8.026;2023-05-02T11:05:03;21.40;1.00
21207;DHT22;10761;48.532;8.026;2023-05-02T11:07:30;22.00;1.00
21207;DHT22;10761;48.532;8.026;2023-05-02T11:12:53;21.70;1.00
21207;DHT22;10761;48.532;8.026;2023-05-02T11:18:12;21.60;1.00
21207;DHT22;10761;48.532;8.026;2023-05-02T11:20:39;21.60;1.00
21207;DHT22;10761;48.532;8.026;2023-05-02T11:25:44;21.00;1.00
21207;DHT22;10761;48.532;8.026;2023-05-02T11:31:02;20.80;1.00
21207;DHT22;10761;48.532;8.026;2023-05-02T11:33:28;21.00;1.00
21207;DHT22;10761;48.532;8.026;2023-05-02T11:35:54;21.50;1.00
21207;DHT22;10761;48.532;8.026;2023-05-02T11:38:21;22.30;1.00
21207;DHT22;10761;48.532;8.026;2023-05-02T11:40:57;22.90;99.90
21207;DHT22;10761;48.532;8.026;2023-05-02T11:43:25;22.70;99.90
21207;DHT22;10761;48.532;8.026;2023-05-02T11:45:53;22.60;99.90
21207;DHT22;10761;48.532;8.026;2023-05-02T11:48:20;22.10;99.90
21207;DHT22;10761;48.532;8.026;2023-05-02T11:50:57;22.00;99.90
21207;DHT22;10761;48.532;8.026;2023-05-02T11:53:27;22.40;99.90
21207;DHT22;10761;48.532;8.026;2023-05-02T11:55:57;22.60;99.90
21207;DHT22;10761;48.532;8.026;2023-05-02T11:58:26;22.40;99.90
21207;DHT22;10761;48.532;8.026;2023-05-02T12:00:54;22.00;99.90
21207;DHT22;10761;48.532;8.026;2023-05-02T12:03:32;22.10;99.90
21207;DHT22;10761;48.532;8.026;2023-05-02T12:06:08;22.10;99.90
21207;DHT22;10761;48.532;8.026;2023-05-02T12:08:35;22.60;99.90
21207;DHT22;10761;48.532;8.026;2023-05-02T12:11:01;23.30;99.90
21207;DHT22;10761;48.532;8.026;2023-05-02T12:13:28;23.20;99.90
21207;DHT22;10761;48.532;8.026;2023-05-02T12:15:54;22.80;99.90
21207;DHT22;10761;48.532;8.026;2023-05-02T12:18:22;22.70;99.90
21207;DHT22;10761;48.532;8.026;2023-05-02T12:20:49;21.60;99.90
21207;DHT22;10761;48.532;8.026;2023-05-02T12:23:16;21.50;99.90
21207;DHT22;10761;48.532;8.026;2023-05-02T12:25:42;21.70;99.90
21207;DHT22;10761;48.532;8.026;2023-05-02T12:28:09;21.70;99.90
21207;DHT22;10761;48.532;8.026;2023-05-02T12:30:36;22.20;99.90
21207;DHT22;10761;48.532;8.026;2023-05-02T12:33:06;22.30;99.90
21207;DHT22;10761;48.532;8.026;2023-05-02T12:35:33;22.60;99.90
21207;DHT22;10761;48.532;8.026;2023-05-02T12:38:09;22.60;99.90
21207;DHT22;10761;48.532;8.026;2023-05-02T12:40:35;22.60;99.90
21207;DHT22;10761;48.532;8.026;2023-05-02T12:43:03;22.80;99.90
21207;DHT22;10761;48.532;8.026;2023-05-02T12:45:30;22.90;99.90
21207;DHT22;10761;48.532;8.026;2023-05-02T12:48:17;23.30;99.90
21207;DHT22;10761;48.532;8.026;2023-05-02T12:50:43;23.40;99.90
21207;DHT22;10761;48.532;8.026;2023-05-02T12:53:08;23.20;99.90
21207;DHT22;10761;48.532;8.026;2023-05-02T12:55:34;22.80;99.90
21207;DHT22;10761;48.532;8.026;2023-05-02T13:00:35;22.90;99.90
21207;DHT22;10761;48.532;8.026;2023-05-02T13:03:02;22.40;99.90
21207;DHT22;10761;48.532;8.026;2023-05-02T13:05:27;22.40;99.90
21207;DHT22;10761;48.532;8.026;2023-05-02T13:07:53;22.00;99.90
21207;DHT22;10761;48.532;8.026;2023-05-02T13:10:21;22.00;99.90
21207;DHT22;10761;48.532;8.026;2023-05-02T13:12:47;22.20;99.90
21207;DHT22;10761;48.532;8.026;2023-05-02T13:15:13;22.70;99.90
21207;DHT22;10761;48.532;8.026;2023-05-02T13:17:39;23.30;99.90
21207;DHT22;10761;48.532;8.026;2023-05-02T13:20:06;22.50;99.90
21207;DHT22;10761;48.532;8.026;2023-05-02T13:22:32;21.80;99.90
21207;DHT22;10761;48.532;8.026;2023-05-02T13:24:58;20.70;99.90
21207;DHT22;10761;48.532;8.026;2023-05-02T13:27:24;19.50;99.90
21207;DHT22;10761;48.532;8.026;2023-05-02T13:29:51;19.00;99.90
21207;DHT22;10761;48.532;8.026;2023-05-02T13:32:17;18.80;1.00
21207;DHT22;10761;48.532;8.026;2023-05-02T13:34:43;19.30;1.00
21207;DHT22;10761;48.532;8.026;2023-05-02T13:37:09;19.60;1.00
21207;DHT22;10761;48.532;8.026;2023-05-02T13:39:35;19.70;1.00
21207;DHT22;10761;48.532;8.026;2023-05-02T13:42:00;19.70;1.00
21207;DHT22;10761;48.532;8.026;2023-05-02T13:44:28;19.90;1.00
21207;DHT22;10761;48.532;8.026;2023-05-02T13:46:53;19.90;1.00
21207;DHT22;10761;48.532;8.026;2023-05-02T13:49:19;20.10;1.00
21207;DHT22;10761;48.532;8.026;2023-05-02T13:51:44;20.20;1.00
21207;DHT22;10761;48.532;8.026;2023-05-02T13:54:10;20.00;1.00
21207;DHT22;10761;48.532;8.026;2023-05-02T13:56:35;20.00;1.00
21207;DHT22;10761;48.532;8.026;2023-05-02T13:59:01;20.00;1.00
21207;DHT22;10761;48.532;8.026;2023-05-02T14:01:27;20.00;1.00
21207;DHT22;10761;48.532;8.026;2023-05-02T14:03:53;19.70;1.00
21207;DHT22;10761;48.532;8.026;2023-05-02T14:06:19;19.40;1.00
21207;DHT22;10761;48.532;8.026;2023-05-02T14:08:45;19.10;1.00
21207;DHT22;10761;48.532;8.026;2023-05-02T14:11:10;18.60;1.00
21207;DHT22;10761;48.532;8.026;2023-05-02T14:13:36;18.50;1.00
21207;DHT22;10761;48.532;8.026;2023-05-02T14:16:02;18.50;1.00
21207;DHT22;10761;48.532;8.026;2023-05-02T14:18:28;18.70;1.00
21207;DHT22;10761;48.532;8.026;2023-05-02T14:20:53;19.00;1.00
21207;DHT22;10761;48.532;8.026;2023-05-02T14:23:22;19.10;1.00
21207;DHT22;10761;48.532;8.026;2023-05-02T14:25:47;19.10;1.00
21207;DHT22;10761;48.532;8.026;2023-05-02T14:28:13;19.40;1.00
21207;DHT22;10761;48.532;8.026;2023-05-02T14:30:38;20.00;1.00
21207;DHT22;10761;48.532;8.026;2023-05-02T14:33:04;20.70;1.00
21207;DHT22;10761;48.532;8.026;2023-05-02T14:35:29;20.70;99.90
21207;DHT22;10761;48.532;8.026;2023-05-02T14:37:55;21.10;99.90
21207;DHT22;10761;48.532;8.026;2023-05-02T14:40:21;21.60;99.90
21207;DHT22;10761;48.532;8.026;2023-05-02T14:42:46;22.10;99.90
21207;DHT22;10761;48.532;8.026;2023-05-02T14:45:12;22.30;99.90
21207;DHT22;10761;48.532;8.026;2023-05-02T14:47:38;22.00;99.90
21207;DHT22;10761;48.532;8.026;2023-05-02T14:50:04;21.60;99.90
21207;DHT22;10761;48.532;8.026;2023-05-02T14:52:30;21.60;99.90
21207;DHT22;10761;48.532;8.026;2023-05-02T14:54:59;21.50;99.90
21207;DHT22;10761;48.532;8.026;2023-05-02T14:57:25;21.80;99.90
21207;DHT22;10761;48.532;8.026;2023-05-02T14:59:51;21.80;99.90
21207;DHT22;10761;48.532;8.026;2023-05-02T15:02:17;21.70;99.90
21207;DHT22;10761;48.532;8.026;2023-05-02T15:04:43;21.70;99.90
21207;DHT22;10761;48.532;8.026;2023-05-02T15:07:08;21.40;99.90
21207;DHT22;10761;48.532;8.026;2023-05-02T15:09:34;21.30;99.90
21207;DHT22;10761;48.532;8.026;2023-05-02T15:12:00;21.20;99.90
21207;DHT22;10761;48.532;8.026;2023-05-02T15:14:27;21.70;99.90
21207;DHT22;10761;48.532;8.026;2023-05-02T15:16:53;21.60;99.90
21207;DHT22;10761;48.532;8.026;2023-05-02T15:19:19;20.90;99.90
21207;DHT22;10761;48.532;8.026;2023-05-02T15:21:47;20.80;99.90
21207;DHT22;10761;48.532;8.026;2023-05-02T15:24:14;20.90;99.90
21207;DHT22;10761;48.532;8.026;2023-05-02T15:26:40;21.30;99.90
21207;DHT22;10761;48.532;8.026;2023-05-02T15:29:06;21.40;99.90
21207;DHT22;10761;48.532;8.026;2023-05-02T15:31:31;21.60;99.90
21207;DHT22;10761;48.532;8.026;2023-05-02T15:33:58;21.00;99.90
21207;DHT22;10761;48.532;8.026;2023-05-02T15:36:27;20.60;99.90
21207;DHT22;10761;48.532;8.026;2023-05-02T15:38:56;20.50;99.90
21207;DHT22;10761;48.532;8.026;2023-05-02T15:41:23;20.50;99.90
21207;DHT22;10761;48.532;8.026;2023-05-02T15:43:51;20.80;99.90
21207;DHT22;10761;48.532;8.026;2023-05-02T15:46:16;21.20;99.90
21207;DHT22;10761;48.532;8.026;2023-05-02T15:48:42;20.90;99.90
21207;DHT22;10761;48.532;8.026;2023-05-02T15:51:08;21.40;99.90
21207;DHT22;10761;48.532;8.026;2023-05-02T15:53:35;21.80;99.90
21207;DHT22;10761;48.532;8.026;2023-05-02T15:56:09;22.00;99.90
21207;DHT22;10761;48.532;8.026;2023-05-02T15:58:35;22.00;99.90
21207;DHT22;10761;48.532;8.026;2023-05-02T16:01:01;21.90;99.90
21207;DHT22;10761;48.532;8.026;2023-05-02T16:03:27;21.50;99.90
21207;DHT22;10761;48.532;8.026;2023-05-02T16:05:53;21.20;99.90
21207;DHT22;10761;48.532;8.026;2023-05-02T16:08:19;21.30;99.90
21207;DHT22;10761;48.532;8.026;2023-05-02T16:10:45;21.30;99.90
21207;DHT22;10761;48.532;8.026;2023-05-02T16:13:11;21.20;99.90
21207;DHT22;10761;48.532;8.026;2023-05-02T16:15:37;21.40;99.90